Newport, RI

11:26 AM EDT on April 21, 2015 (GMT -0400)
Historic hill | | Change Station
CLOSE
Current Station
Personal Weather Station
Location: Newport, RI
Elevation: 85 ft
Nearby Weather Stations

Elev 85 ft 41.48 °N, 71.31 °W | Updated 11 minutes ago

Overcast
Overcast
53.2 °F
Feels Like 53.2 °F
N
0.0
Wind Variable Wind from NE
Gusts 2.0 mph

Today
High -- | Low -- °F
--% Chance of Precip.
Yesterday
High -- | Low -- °F
Precip. -- in
5:56 AM 7:31 PM
Waxing Crescent, 11% visible
Pressure 29.58 in
Visibility 9.0 miles
Clouds Overcast 300 ft
Dew Point 52 °F
Humidity 94%
Rainfall 0.00 in
Snow Depth Not available.
UV 2 out of 12
Pollen 7.60 out of 12
Air Quality Not available.
Flu Activity Local Activity
METAR KUUU 211453Z AUTO 19009KT 9SM OVC003 11/10 A2958 RMK AO2 SLP016 60004 T01110100 55001

More Conditions Fewer Conditions

Pressure 29.58 in
Visibility 9.0 miles
Clouds Overcast 300 ft
Dew Point 52 °F
Humidity 94%
Rainfall 0.00 in
Snow Depth Not available.
UV 2 out of 12
Pollen 7.60 out of 12
Air Quality Not available.
Flu Activity Local Activity
METAR KUUU 211453Z AUTO 19009KT 9SM OVC003 11/10 A2958 RMK AO2 SLP016 60004 T01110100 55001

More Conditions Fewer Conditions

10-Day Weather Forecast

Almanac

Astronomy

Apr. 21, 2015 Rise Set
Actual Time
Civil Twilight
Nautical Twilight
Astronomical Twilight
Moon
Length of Visible Light
Length of Day
Tomorrow will be .
, % of the Moon is Illuminated

Today's Extremes

State Highs State Lows

Community

WunderPhotos

Upload Photos

1,815,420 photos uploaded!

WunderBlogs® & News

Nearby

Air Quality

  Air Quality AQ Index Pollutant
Not available.

Snow Depth

Station Depth Elevation

Earthquake Activity

City Distance Mag. Time & Date
Minimum magnitude displayed is 2.5.

Coastal Water Temperatures

Place Temperature

Stations

Nearby Weather Stations

Station Location Temp. Windchill Dew Point Humidity Wind Precip. Elev Updated Type